True Love — WDG3367 — position and weather

sailwx.info

Track history (hours):
 
Tides and Currents Weather Stations Pressure Air Temp Water Temp Dewpoint Dewpoint Depression Visibility Wind Speed Wind Dir Waves Ship Positions

True Love

Owner: Spady, James R, Snoqualmie Pass, WA. More information available from US FCC via Universal Licensing System and Coast Guard Vessel Documentation Center.

Last reported at 2018-Aug-17 18:04 UTC. Time now 2018-Aug-19 15:18 UTC.
Position N 48°36' W 123°19'.

Length 16 m.

Type: Pleasure craft. MMSI: 367525310.

Date/timePositionNaut miles runAvg speedWind from/ knotsBaromVisibWave heightAir tempDewpointWater temp
2018-Aug-17 18:04N 48°36' W 123°19'110.9
2018-Aug-17 17:58N 48°37' W 123°20'5 9.8
2018-Aug-17 17:30N 48°40' W 123°24'0 0.2
2018-Aug-17 16:59N 48°40' W 123°24'0 0.0
2018-Aug-17 16:24N 48°40' W 123°24'2 4.9
2018-Aug-17 16:00N 48°42' W 123°26'4 8.3
2018-Aug-17 15:30N 48°38' W 123°29'2 0.1
2018-Aug-15 21:42N 48°36' W 123°30'1 7.7
2018-Aug-15 21:30N 48°37' W 123°31'4 7.7
2018-Aug-15 21:00N 48°41' W 123°32'4 8.6
2018-Aug-15 20:30N 48°45' W 123°34'4 7.6
2018-Aug-15 19:59N 48°49' W 123°34'5 7.5
2018-Aug-15 19:21N 48°53' W 123°38'40 1.8
2018-Aug-14 21:18N 49°29' W 124°03'2 5.7
2018-Aug-14 21:00N 49°31' W 124°04'611.5
2018-Aug-14 20:29N 49°37' W 124°04'4 8.8
2018-Aug-14 20:00N 49°41' W 124°05'5 8.9
2018-Aug-14 19:30N 49°45' W 124°01'  
2018-Aug-11 19:21N 49°46' W 124°10'19 0.9
2018-Aug-10 22:20N 49°52' W 124°37'3 6.8
2018-Aug-10 21:56N 49°54' W 124°40'3 6.7
2018-Aug-10 21:27N 49°56' W 124°43'4 7.6
2018-Aug-10 20:54N 49°60' W 124°47'3 8.4
2018-Aug-10 20:31N 50°02' W 124°50'4 6.8
2018-Aug-10 19:59N 50°06' W 124°48'4 7.2
2018-Aug-10 19:30N 50°08' W 124°44'2 4.1
2018-Aug-10 19:00N 50°09' W 124°42'3 6.6
2018-Aug-10 18:30N 50°12' W 124°38'4 6.5
2018-Aug-10 17:52N 50°16' W 124°37'7 0.2
2018-Aug-08 21:01N 50°21' W 124°44'2 8.1
2018-Aug-08 20:46N 50°20' W 124°47'1 1.6
2018-Aug-08 20:24N 50°19' W 124°48'0 0.0
2018-Aug-08 20:00N 50°19' W 124°48'0 0.0
2018-Aug-08 19:30N 50°19' W 124°48'0 0.0
2018-Aug-08 19:00N 50°19' W 124°48'0 0.0
2018-Aug-08 18:30N 50°19' W 124°48'0 0.0
2018-Aug-08 18:00N 50°19' W 124°48'0 0.1
2018-Aug-08 17:30N 50°19' W 124°48'0 0.1
2018-Aug-08 16:48N 50°19' W 124°48'0 0.0
2018-Aug-08 16:24N 50°19' W 124°48'0 0.0
2018-Aug-08 16:00N 50°19' W 124°48'0 0.0
2018-Aug-08 15:30N 50°19' W 124°48'0 0.0
2018-Aug-08 15:00N 50°19' W 124°48'0 0.0
2018-Aug-08 14:30N 50°19' W 124°48'0 0.0
2018-Aug-08 13:48N 50°19' W 124°48'0 0.0
2018-Aug-08 13:12N 50°19' W 124°48'0 0.0
2018-Aug-08 12:48N 50°19' W 124°48'0 0.0
2018-Aug-08 12:18N 50°19' W 124°48'0 0.0
2018-Aug-08 11:48N 50°19' W 124°48'0 0.0
2018-Aug-08 11:30N 50°19' W 124°48'0 0.0
2018-Aug-08 10:54N 50°19' W 124°48'0 0.0
2018-Aug-08 10:24N 50°19' W 124°48'0 0.0
2018-Aug-08 10:00N 50°19' W 124°48'0 0.0
2018-Aug-08 09:24N 50°19' W 124°48'0 0.1
2018-Aug-08 09:00N 50°19' W 124°48'0 0.0
2018-Aug-08 06:48N 50°19' W 124°48'0 0.0
2018-Aug-08 06:18N 50°19' W 124°48'0 0.0
2018-Aug-08 06:00N 50°19' W 124°48'0 0.0
2018-Aug-08 05:30N 50°19' W 124°48'0 0.0
2018-Aug-08 05:00N 50°19' W 124°48'0 0.0
2018-Aug-08 04:30N 50°19' W 124°48'0 0.0
2018-Aug-08 04:00N 50°19' W 124°48'0 0.0
2018-Aug-08 03:18N 50°19' W 124°48'0 0.1
2018-Aug-08 03:00N 50°19' W 124°48'0 0.0
2018-Aug-08 01:24N 50°19' W 124°48'0 0.0
2018-Aug-07 23:04N 50°19' W 124°48'0 0.0
2018-Aug-07 22:58N 50°19' W 124°48'0 0.0
2018-Aug-07 22:28N 50°19' W 124°48'0 0.0
2018-Aug-07 21:52N 50°19' W 124°48'0 0.0
2018-Aug-07 21:28N 50°19' W 124°48'0 0.0
2018-Aug-07 20:40N 50°19' W 124°48'0 0.0
2018-Aug-07 20:22N 50°19' W 124°48'0 0.0
2018-Aug-07 19:58N 50°19' W 124°48'0 0.0
2018-Aug-07 19:13N 50°19' W 124°48'0 0.0
2018-Aug-07 18:58N 50°19' W 124°48'0 0.0
2018-Aug-07 18:22N 50°19' W 124°48'  
Track history (hours):
 
Tides and Currents Weather Stations Pressure Air Temp Water Temp Dewpoint Dewpoint Depression Visibility Wind Speed Wind Dir Waves Ship Positions

True Love

Owner: Spady, James R, Snoqualmie Pass, WA. More information available from US FCC via Universal Licensing System and Coast Guard Vessel Documentation Center.

Last reported at 2018-Aug-17 18:04 UTC. Time now 2018-Aug-19 15:18 UTC.
Position N 48°36' W 123°19'.

Length 16 m.

Type: Pleasure craft. MMSI: 367525310.

Date/timePositionNaut miles runAvg speedWind from/ knotsBaromVisibWave heightAir tempDewpointWater temp
2018-Aug-17 18:04N 48°36' W 123°19'110.9
2018-Aug-17 17:58N 48°37' W 123°20'5 9.8
2018-Aug-17 17:30N 48°40' W 123°24'0 0.2
2018-Aug-17 16:59N 48°40' W 123°24'0 0.0
2018-Aug-17 16:24N 48°40' W 123°24'2 4.9
2018-Aug-17 16:00N 48°42' W 123°26'4 8.3
2018-Aug-17 15:30N 48°38' W 123°29'2 0.1
2018-Aug-15 21:42N 48°36' W 123°30'1 7.7
2018-Aug-15 21:30N 48°37' W 123°31'4 7.7
2018-Aug-15 21:00N 48°41' W 123°32'4 8.6
2018-Aug-15 20:30N 48°45' W 123°34'4 7.6
2018-Aug-15 19:59N 48°49' W 123°34'5 7.5
2018-Aug-15 19:21N 48°53' W 123°38'40 1.8
2018-Aug-14 21:18N 49°29' W 124°03'2 5.7
2018-Aug-14 21:00N 49°31' W 124°04'611.5
2018-Aug-14 20:29N 49°37' W 124°04'4 8.8
2018-Aug-14 20:00N 49°41' W 124°05'5 8.9
2018-Aug-14 19:30N 49°45' W 124°01'  
2018-Aug-11 19:21N 49°46' W 124°10'19 0.9
2018-Aug-10 22:20N 49°52' W 124°37'3 6.8
2018-Aug-10 21:56N 49°54' W 124°40'3 6.7
2018-Aug-10 21:27N 49°56' W 124°43'4 7.6
2018-Aug-10 20:54N 49°60' W 124°47'3 8.4
2018-Aug-10 20:31N 50°02' W 124°50'4 6.8
2018-Aug-10 19:59N 50°06' W 124°48'4 7.2
2018-Aug-10 19:30N 50°08' W 124°44'2 4.1
2018-Aug-10 19:00N 50°09' W 124°42'3 6.6
2018-Aug-10 18:30N 50°12' W 124°38'4 6.5
2018-Aug-10 17:52N 50°16' W 124°37'7 0.2
2018-Aug-08 21:01N 50°21' W 124°44'2 8.1
2018-Aug-08 20:46N 50°20' W 124°47'1 1.6
2018-Aug-08 20:24N 50°19' W 124°48'0 0.0
2018-Aug-08 20:00N 50°19' W 124°48'0 0.0
2018-Aug-08 19:30N 50°19' W 124°48'0 0.0
2018-Aug-08 19:00N 50°19' W 124°48'0 0.0
2018-Aug-08 18:30N 50°19' W 124°48'0 0.0
2018-Aug-08 18:00N 50°19' W 124°48'0 0.1
2018-Aug-08 17:30N 50°19' W 124°48'0 0.1
2018-Aug-08 16:48N 50°19' W 124°48'0 0.0
2018-Aug-08 16:24N 50°19' W 124°48'0 0.0
2018-Aug-08 16:00N 50°19' W 124°48'0 0.0
2018-Aug-08 15:30N 50°19' W 124°48'0 0.0
2018-Aug-08 15:00N 50°19' W 124°48'0 0.0
2018-Aug-08 14:30N 50°19' W 124°48'0 0.0
2018-Aug-08 13:48N 50°19' W 124°48'0 0.0
2018-Aug-08 13:12N 50°19' W 124°48'0 0.0
2018-Aug-08 12:48N 50°19' W 124°48'0 0.0
2018-Aug-08 12:18N 50°19' W 124°48'0 0.0
2018-Aug-08 11:48N 50°19' W 124°48'0 0.0
2018-Aug-08 11:30N 50°19' W 124°48'0 0.0
2018-Aug-08 10:54N 50°19' W 124°48'0 0.0
2018-Aug-08 10:24N 50°19' W 124°48'0 0.0
2018-Aug-08 10:00N 50°19' W 124°48'0 0.0
2018-Aug-08 09:24N 50°19' W 124°48'0 0.1
2018-Aug-08 09:00N 50°19' W 124°48'0 0.0
2018-Aug-08 06:48N 50°19' W 124°48'0 0.0
2018-Aug-08 06:18N 50°19' W 124°48'0 0.0
2018-Aug-08 06:00N 50°19' W 124°48'0 0.0
2018-Aug-08 05:30N 50°19' W 124°48'0 0.0
2018-Aug-08 05:00N 50°19' W 124°48'0 0.0
2018-Aug-08 04:30N 50°19' W 124°48'0 0.0
2018-Aug-08 04:00N 50°19' W 124°48'0 0.0
2018-Aug-08 03:18N 50°19' W 124°48'0 0.1
2018-Aug-08 03:00N 50°19' W 124°48'0 0.0
2018-Aug-08 01:24N 50°19' W 124°48'0 0.0
2018-Aug-07 23:04N 50°19' W 124°48'0 0.0
2018-Aug-07 22:58N 50°19' W 124°48'0 0.0
2018-Aug-07 22:28N 50°19' W 124°48'0 0.0
2018-Aug-07 21:52N 50°19' W 124°48'0 0.0
2018-Aug-07 21:28N 50°19' W 124°48'0 0.0
2018-Aug-07 20:40N 50°19' W 124°48'0 0.0
2018-Aug-07 20:22N 50°19' W 124°48'0 0.0
2018-Aug-07 19:58N 50°19' W 124°48'0 0.0
2018-Aug-07 19:13N 50°19' W 124°48'0 0.0
2018-Aug-07 18:58N 50°19' W 124°48'0 0.0
2018-Aug-07 18:22N 50°19' W 124°48'  

Dump ship's entire track history